sensor_id;sensor_type;location;lat;lon;timestamp;P1;P4;P2;P0;N10;N4;N25;N1;N05;TS
84740;SPS30;74970;47.924;13.802;2023-12-28T00:03:55;5.9;;6.0;5.5;;;;;;
84740;SPS30;74970;47.924;13.802;2023-12-28T00:08:55;5.9;;5.9;5.6;;;;;;
84740;SPS30;74970;47.924;13.802;2023-12-28T00:13:55;4.9;;4.9;4.6;;;;;;
84740;SPS30;74970;47.924;13.802;2023-12-28T00:18:55;5.4;;5.4;5.1;;;;;;
84740;SPS30;74970;47.924;13.802;2023-12-28T00:23:55;4.4;;4.4;4.2;;;;;;
84740;SPS30;74970;47.924;13.802;2023-12-28T00:28:55;5.4;;5.4;5.2;;;;;;
84740;SPS30;74970;47.924;13.802;2023-12-28T00:33:55;5.7;;5.7;5.4;;;;;;
84740;SPS30;74970;47.924;13.802;2023-12-28T00:38:56;5.5;;5.5;5.3;;;;;;
84740;SPS30;74970;47.924;13.802;2023-12-28T00:43:55;4.7;;4.7;4.4;;;;;;
84740;SPS30;74970;47.924;13.802;2023-12-28T00:48:55;5.3;;5.3;5.0;;;;;;
84740;SPS30;74970;47.924;13.802;2023-12-28T00:53:55;5.5;;5.5;5.2;;;;;;
84740;SPS30;74970;47.924;13.802;2023-12-28T00:58:55;4.9;;4.9;4.7;;;;;;
84740;SPS30;74970;47.924;13.802;2023-12-28T01:03:55;5.8;;5.9;5.5;;;;;;
84740;SPS30;74970;47.924;13.802;2023-12-28T01:08:55;5.7;;5.7;5.5;;;;;;
84740;SPS30;74970;47.924;13.802;2023-12-28T01:13:56;5.8;;5.8;5.6;;;;;;
84740;SPS30;74970;47.924;13.802;2023-12-28T01:18:56;5.8;;5.8;5.5;;;;;;
84740;SPS30;74970;47.924;13.802;2023-12-28T01:23:56;5.4;;5.4;5.2;;;;;;
84740;SPS30;74970;47.924;13.802;2023-12-28T01:28:56;5.4;;5.4;5.2;;;;;;
84740;SPS30;74970;47.924;13.802;2023-12-28T01:33:56;5.8;;5.8;5.5;;;;;;
84740;SPS30;74970;47.924;13.802;2023-12-28T01:38:55;7.0;;7.0;6.6;;;;;;
84740;SPS30;74970;47.924;13.802;2023-12-28T01:43:55;6.8;;6.8;6.4;;;;;;
84740;SPS30;74970;47.924;13.802;2023-12-28T01:48:56;5.4;;5.4;5.2;;;;;;
84740;SPS30;74970;47.924;13.802;2023-12-28T01:53:55;5.4;;5.4;5.2;;;;;;
84740;SPS30;74970;47.924;13.802;2023-12-28T01:58:56;4.1;;4.1;3.9;;;;;;
84740;SPS30;74970;47.924;13.802;2023-12-28T02:03:56;3.6;;3.6;3.4;;;;;;
84740;SPS30;74970;47.924;13.802;2023-12-28T02:08:56;4.3;;4.3;4.1;;;;;;
84740;SPS30;74970;47.924;13.802;2023-12-28T02:13:55;4.2;;4.2;4.0;;;;;;
84740;SPS30;74970;47.924;13.802;2023-12-28T02:18:56;6.6;;6.6;6.3;;;;;;
84740;SPS30;74970;47.924;13.802;2023-12-28T02:23:56;2.0;;2.0;1.9;;;;;;
84740;SPS30;74970;47.924;13.802;2023-12-28T02:28:56;1.5;;1.5;1.4;;;;;;
84740;SPS30;74970;47.924;13.802;2023-12-28T02:33:58;1.7;;1.7;1.6;;;;;;
84740;SPS30;74970;47.924;13.802;2023-12-28T02:38:56;1.6;;1.6;1.5;;;;;;
84740;SPS30;74970;47.924;13.802;2023-12-28T02:43:55;1.8;;1.8;1.7;;;;;;
84740;SPS30;74970;47.924;13.802;2023-12-28T02:48:55;1.6;;1.6;1.5;;;;;;
84740;SPS30;74970;47.924;13.802;2023-12-28T02:53:56;1.3;;1.3;1.2;;;;;;
84740;SPS30;74970;47.924;13.802;2023-12-28T02:58:55;1.4;;1.5;1.3;;;;;;
84740;SPS30;74970;47.924;13.802;2023-12-28T03:03:55;1.4;;1.4;1.3;;;;;;
84740;SPS30;74970;47.924;13.802;2023-12-28T03:08:56;2.1;;2.1;2.0;;;;;;
84740;SPS30;74970;47.924;13.802;2023-12-28T03:13:55;1.5;;1.5;1.4;;;;;;
84740;SPS30;74970;47.924;13.802;2023-12-28T03:18:56;1.7;;1.7;1.6;;;;;;
84740;SPS30;74970;47.924;13.802;2023-12-28T03:23:56;1.9;;2.0;1.8;;;;;;
84740;SPS30;74970;47.924;13.802;2023-12-28T03:28:55;1.5;;1.6;1.5;;;;;;
84740;SPS30;74970;47.924;13.802;2023-12-28T03:33:56;2.1;;2.1;2.0;;;;;;
84740;SPS30;74970;47.924;13.802;2023-12-28T03:38:55;1.6;;1.6;1.5;;;;;;
84740;SPS30;74970;47.924;13.802;2023-12-28T03:43:55;1.3;;1.3;1.2;;;;;;
84740;SPS30;74970;47.924;13.802;2023-12-28T03:48:56;1.3;;1.3;1.3;;;;;;
84740;SPS30;74970;47.924;13.802;2023-12-28T03:53:56;1.3;;1.3;1.2;;;;;;
84740;SPS30;74970;47.924;13.802;2023-12-28T03:58:56;1.4;;1.5;1.3;;;;;;
84740;SPS30;74970;47.924;13.802;2023-12-28T04:03:55;1.2;;1.2;1.1;;;;;;
84740;SPS30;74970;47.924;13.802;2023-12-28T04:08:56;1.3;;1.3;1.3;;;;;;
84740;SPS30;74970;47.924;13.802;2023-12-28T04:13:56;1.4;;1.4;1.3;;;;;;
84740;SPS30;74970;47.924;13.802;2023-12-28T04:18:55;1.3;;1.3;1.2;;;;;;
84740;SPS30;74970;47.924;13.802;2023-12-28T04:23:56;1.5;;1.5;1.4;;;;;;
84740;SPS30;74970;47.924;13.802;2023-12-28T04:28:56;1.0;;1.0;0.9;;;;;;
84740;SPS30;74970;47.924;13.802;2023-12-28T04:33:56;1.3;;1.3;1.2;;;;;;
84740;SPS30;74970;47.924;13.802;2023-12-28T04:38:56;1.4;;1.4;1.3;;;;;;
84740;SPS30;74970;47.924;13.802;2023-12-28T04:43:56;1.6;;1.6;1.5;;;;;;
84740;SPS30;74970;47.924;13.802;2023-12-28T04:48:56;1.2;;1.2;1.1;;;;;;
84740;SPS30;74970;47.924;13.802;2023-12-28T04:53:56;1.3;;1.3;1.2;;;;;;
84740;SPS30;74970;47.924;13.802;2023-12-28T04:58:56;1.6;;1.6;1.6;;;;;;
84740;SPS30;74970;47.924;13.802;2023-12-28T05:03:56;1.5;;1.5;1.4;;;;;;
84740;SPS30;74970;47.924;13.802;2023-12-28T05:08:56;1.6;;1.6;1.5;;;;;;
84740;SPS30;74970;47.924;13.802;2023-12-28T05:13:56;1.3;;1.3;1.2;;;;;;
84740;SPS30;74970;47.924;13.802;2023-12-28T05:18:56;1.5;;1.5;1.4;;;;;;
84740;SPS30;74970;47.924;13.802;2023-12-28T05:23:56;1.8;;1.8;1.7;;;;;;
84740;SPS30;74970;47.924;13.802;2023-12-28T05:28:56;1.3;;1.4;1.3;;;;;;
84740;SPS30;74970;47.924;13.802;2023-12-28T05:33:56;1.4;;1.4;1.3;;;;;;
84740;SPS30;74970;47.924;13.802;2023-12-28T05:38:56;1.8;;1.9;1.7;;;;;;
84740;SPS30;74970;47.924;13.802;2023-12-28T05:43:56;1.6;;1.6;1.5;;;;;;
84740;SPS30;74970;47.924;13.802;2023-12-28T05:48:56;1.5;;1.6;1.4;;;;;;
84740;SPS30;74970;47.924;13.802;2023-12-28T05:53:56;1.6;;1.6;1.5;;;;;;
84740;SPS30;74970;47.924;13.802;2023-12-28T05:58:56;1.8;;1.8;1.7;;;;;;
84740;SPS30;74970;47.924;13.802;2023-12-28T06:03:56;1.7;;1.8;1.6;;;;;;
84740;SPS30;74970;47.924;13.802;2023-12-28T06:08:56;1.9;;1.9;1.8;;;;;;
84740;SPS30;74970;47.924;13.802;2023-12-28T06:13:56;1.7;;1.7;1.6;;;;;;
84740;SPS30;74970;47.924;13.802;2023-12-28T06:18:56;2.3;;2.3;2.2;;;;;;
84740;SPS30;74970;47.924;13.802;2023-12-28T06:23:56;2.0;;2.0;1.9;;;;;;
84740;SPS30;74970;47.924;13.802;2023-12-28T06:28:56;2.1;;2.1;2.0;;;;;;
84740;SPS30;74970;47.924;13.802;2023-12-28T06:33:55;1.7;;1.7;1.6;;;;;;
84740;SPS30;74970;47.924;13.802;2023-12-28T06:38:55;2.2;;2.2;2.1;;;;;;
84740;SPS30;74970;47.924;13.802;2023-12-28T06:43:55;1.8;;1.8;1.7;;;;;;
84740;SPS30;74970;47.924;13.802;2023-12-28T06:48:55;1.9;;1.9;1.8;;;;;;
84740;SPS30;74970;47.924;13.802;2023-12-28T06:53:55;2.1;;2.1;2.0;;;;;;
84740;SPS30;74970;47.924;13.802;2023-12-28T06:58:55;2.0;;2.0;1.9;;;;;;
84740;SPS30;74970;47.924;13.802;2023-12-28T07:03:55;1.7;;1.7;1.6;;;;;;
84740;SPS30;74970;47.924;13.802;2023-12-28T07:08:55;2.0;;2.0;1.9;;;;;;
84740;SPS30;74970;47.924;13.802;2023-12-28T07:13:55;1.9;;1.9;1.8;;;;;;
84740;SPS30;74970;47.924;13.802;2023-12-28T07:18:55;2.0;;2.0;1.8;;;;;;
84740;SPS30;74970;47.924;13.802;2023-12-28T07:23:55;2.0;;2.0;1.9;;;;;;
84740;SPS30;74970;47.924;13.802;2023-12-28T07:28:55;1.8;;1.8;1.7;;;;;;
84740;SPS30;74970;47.924;13.802;2023-12-28T07:33:55;1.9;;2.0;1.8;;;;;;
84740;SPS30;74970;47.924;13.802;2023-12-28T07:38:55;2.2;;2.3;2.1;;;;;;
84740;SPS30;74970;47.924;13.802;2023-12-28T07:43:55;2.4;;2.4;2.2;;;;;;
84740;SPS30;74970;47.924;13.802;2023-12-28T07:48:55;1.7;;1.7;1.6;;;;;;
84740;SPS30;74970;47.924;13.802;2023-12-28T07:53:55;2.9;;3.0;2.8;;;;;;
84740;SPS30;74970;47.924;13.802;2023-12-28T07:58:55;2.4;;2.5;2.3;;;;;;
84740;SPS30;74970;47.924;13.802;2023-12-28T08:03:55;2.3;;2.4;2.2;;;;;;
84740;SPS30;74970;47.924;13.802;2023-12-28T08:08:55;2.2;;2.2;2.1;;;;;;
84740;SPS30;74970;47.924;13.802;2023-12-28T08:13:55;1.8;;1.9;1.7;;;;;;
84740;SPS30;74970;47.924;13.802;2023-12-28T08:18:55;2.1;;2.1;2.0;;;;;;
84740;SPS30;74970;47.924;13.802;2023-12-28T08:23:56;2.5;;2.5;2.4;;;;;;
84740;SPS30;74970;47.924;13.802;2023-12-28T08:28:55;2.0;;2.0;1.8;;;;;;
84740;SPS30;74970;47.924;13.802;2023-12-28T08:33:55;2.2;;2.2;2.1;;;;;;
84740;SPS30;74970;47.924;13.802;2023-12-28T08:38:55;2.3;;2.3;2.2;;;;;;
84740;SPS30;74970;47.924;13.802;2023-12-28T08:43:55;2.7;;2.7;2.6;;;;;;
84740;SPS30;74970;47.924;13.802;2023-12-28T08:48:55;3.1;;3.1;2.9;;;;;;
84740;SPS30;74970;47.924;13.802;2023-12-28T08:53:55;4.1;;4.1;3.9;;;;;;
84740;SPS30;74970;47.924;13.802;2023-12-28T08:58:55;1.8;;1.8;1.7;;;;;;
84740;SPS30;74970;47.924;13.802;2023-12-28T09:03:55;2.5;;2.5;2.4;;;;;;
84740;SPS30;74970;47.924;13.802;2023-12-28T09:08:55;2.2;;2.2;2.1;;;;;;
84740;SPS30;74970;47.924;13.802;2023-12-28T09:14:00;2.0;;2.0;1.9;;;;;;
84740;SPS30;74970;47.924;13.802;2023-12-28T09:18:55;1.8;;1.8;1.8;;;;;;
84740;SPS30;74970;47.924;13.802;2023-12-28T09:23:56;1.9;;1.9;1.8;;;;;;
84740;SPS30;74970;47.924;13.802;2023-12-28T09:28:56;2.1;;2.1;2.0;;;;;;
84740;SPS30;74970;47.924;13.802;2023-12-28T09:33:55;2.0;;2.0;1.9;;;;;;
84740;SPS30;74970;47.924;13.802;2023-12-28T09:38:55;2.0;;2.0;1.8;;;;;;
84740;SPS30;74970;47.924;13.802;2023-12-28T09:43:58;1.8;;1.8;1.7;;;;;;
84740;SPS30;74970;47.924;13.802;2023-12-28T09:48:55;2.4;;2.4;2.3;;;;;;
84740;SPS30;74970;47.924;13.802;2023-12-28T09:53:55;2.7;;2.7;2.5;;;;;;
84740;SPS30;74970;47.924;13.802;2023-12-28T09:58:55;2.1;;2.2;2.0;;;;;;
84740;SPS30;74970;47.924;13.802;2023-12-28T10:03:55;2.6;;2.7;2.4;;;;;;
84740;SPS30;74970;47.924;13.802;2023-12-28T10:08:55;2.3;;2.3;2.2;;;;;;
84740;SPS30;74970;47.924;13.802;2023-12-28T10:13:55;1.7;;1.7;1.6;;;;;;
84740;SPS30;74970;47.924;13.802;2023-12-28T10:18:56;2.1;;2.1;2.0;;;;;;
84740;SPS30;74970;47.924;13.802;2023-12-28T10:23:55;2.3;;2.3;2.1;;;;;;
84740;SPS30;74970;47.924;13.802;2023-12-28T10:28:58;2.7;;2.8;2.6;;;;;;
84740;SPS30;74970;47.924;13.802;2023-12-28T10:33:58;2.6;;2.6;2.4;;;;;;
84740;SPS30;74970;47.924;13.802;2023-12-28T10:38:55;2.4;;2.4;2.3;;;;;;
84740;SPS30;74970;47.924;13.802;2023-12-28T10:43:57;3.6;;3.7;3.4;;;;;;
84740;SPS30;74970;47.924;13.802;2023-12-28T10:48:57;3.9;;3.9;3.7;;;;;;
84740;SPS30;74970;47.924;13.802;2023-12-28T10:53:58;3.8;;3.8;3.7;;;;;;
84740;SPS30;74970;47.924;13.802;2023-12-28T10:58:58;3.4;;3.4;3.2;;;;;;
84740;SPS30;74970;47.924;13.802;2023-12-28T11:03:58;2.8;;2.8;2.6;;;;;;
84740;SPS30;74970;47.924;13.802;2023-12-28T11:08:55;5.2;;5.2;4.9;;;;;;
84740;SPS30;74970;47.924;13.802;2023-12-28T11:13:56;4.0;;4.0;3.8;;;;;;
84740;SPS30;74970;47.924;13.802;2023-12-28T11:18:55;2.9;;2.9;2.8;;;;;;
84740;SPS30;74970;47.924;13.802;2023-12-28T11:23:55;2.9;;2.9;2.8;;;;;;
84740;SPS30;74970;47.924;13.802;2023-12-28T11:29:01;3.2;;3.2;3.0;;;;;;
84740;SPS30;74970;47.924;13.802;2023-12-28T11:33:55;4.0;;4.1;3.7;;;;;;
84740;SPS30;74970;47.924;13.802;2023-12-28T11:38:56;12.0;;12.5;11.0;;;;;;
84740;SPS30;74970;47.924;13.802;2023-12-28T11:43:56;3.5;;3.6;3.3;;;;;;
84740;SPS30;74970;47.924;13.802;2023-12-28T11:49:03;2.9;;2.9;2.7;;;;;;
84740;SPS30;74970;47.924;13.802;2023-12-28T11:53:55;3.2;;3.3;3.0;;;;;;
84740;SPS30;74970;47.924;13.802;2023-12-28T11:58:55;3.5;;3.5;3.2;;;;;;
84740;SPS30;74970;47.924;13.802;2023-12-28T12:03:55;3.1;;3.1;3.0;;;;;;
84740;SPS30;74970;47.924;13.802;2023-12-28T12:08:55;3.7;;3.7;3.5;;;;;;
84740;SPS30;74970;47.924;13.802;2023-12-28T12:13:55;3.2;;3.2;3.0;;;;;;
84740;SPS30;74970;47.924;13.802;2023-12-28T12:18:55;2.9;;3.0;2.8;;;;;;
84740;SPS30;74970;47.924;13.802;2023-12-28T12:23:55;3.1;;3.1;2.9;;;;;;
84740;SPS30;74970;47.924;13.802;2023-12-28T12:28:55;3.8;;3.8;3.6;;;;;;
84740;SPS30;74970;47.924;13.802;2023-12-28T12:33:56;3.3;;3.4;3.1;;;;;;
84740;SPS30;74970;47.924;13.802;2023-12-28T12:38:56;2.9;;3.0;2.8;;;;;;
84740;SPS30;74970;47.924;13.802;2023-12-28T12:43:56;2.5;;2.6;2.3;;;;;;
84740;SPS30;74970;47.924;13.802;2023-12-28T12:48:56;3.3;;3.4;3.1;;;;;;
84740;SPS30;74970;47.924;13.802;2023-12-28T12:53:59;2.8;;2.8;2.6;;;;;;
84740;SPS30;74970;47.924;13.802;2023-12-28T12:58:56;2.9;;2.9;2.7;;;;;;
84740;SPS30;74970;47.924;13.802;2023-12-28T13:03:56;2.9;;2.9;2.7;;;;;;
84740;SPS30;74970;47.924;13.802;2023-12-28T13:08:56;2.0;;2.0;1.9;;;;;;
84740;SPS30;74970;47.924;13.802;2023-12-28T13:13:56;2.0;;2.1;1.9;;;;;;
84740;SPS30;74970;47.924;13.802;2023-12-28T13:18:56;3.3;;3.3;3.1;;;;;;
84740;SPS30;74970;47.924;13.802;2023-12-28T13:23:56;2.6;;2.6;2.4;;;;;;
84740;SPS30;74970;47.924;13.802;2023-12-28T13:28:56;2.8;;2.9;2.6;;;;;;
84740;SPS30;74970;47.924;13.802;2023-12-28T13:33:56;3.4;;3.5;3.2;;;;;;
84740;SPS30;74970;47.924;13.802;2023-12-28T13:38:56;3.1;;3.2;3.0;;;;;;
84740;SPS30;74970;47.924;13.802;2023-12-28T13:43:56;2.8;;2.8;2.7;;;;;;
84740;SPS30;74970;47.924;13.802;2023-12-28T13:48:56;3.9;;3.9;3.8;;;;;;
84740;SPS30;74970;47.924;13.802;2023-12-28T13:53:56;4.9;;4.9;4.6;;;;;;
84740;SPS30;74970;47.924;13.802;2023-12-28T13:58:56;3.5;;3.6;3.3;;;;;;
84740;SPS30;74970;47.924;13.802;2023-12-28T14:03:56;4.1;;4.1;3.8;;;;;;
84740;SPS30;74970;47.924;13.802;2023-12-28T14:08:56;4.1;;4.2;3.9;;;;;;
84740;SPS30;74970;47.924;13.802;2023-12-28T14:13:56;4.4;;4.5;4.1;;;;;;
84740;SPS30;74970;47.924;13.802;2023-12-28T14:18:56;4.0;;4.1;3.7;;;;;;
84740;SPS30;74970;47.924;13.802;2023-12-28T14:23:56;4.8;;5.0;4.5;;;;;;
84740;SPS30;74970;47.924;13.802;2023-12-28T14:28:56;5.9;;6.0;5.5;;;;;;
84740;SPS30;74970;47.924;13.802;2023-12-28T14:33:56;6.0;;6.1;5.6;;;;;;
84740;SPS30;74970;47.924;13.802;2023-12-28T14:38:56;5.2;;5.4;4.9;;;;;;
84740;SPS30;74970;47.924;13.802;2023-12-28T14:43:56;5.3;;5.4;5.1;;;;;;
84740;SPS30;74970;47.924;13.802;2023-12-28T14:48:56;5.7;;5.8;5.4;;;;;;
84740;SPS30;74970;47.924;13.802;2023-12-28T14:53:56;5.4;;5.5;5.1;;;;;;
84740;SPS30;74970;47.924;13.802;2023-12-28T14:58:56;5.2;;5.3;4.9;;;;;;
84740;SPS30;74970;47.924;13.802;2023-12-28T15:03:56;5.1;;5.2;4.7;;;;;;
84740;SPS30;74970;47.924;13.802;2023-12-28T15:08:56;4.5;;4.6;4.1;;;;;;
84740;SPS30;74970;47.924;13.802;2023-12-28T15:13:56;5.0;;5.1;4.7;;;;;;
84740;SPS30;74970;47.924;13.802;2023-12-28T15:18:56;5.1;;5.2;4.8;;;;;;
84740;SPS30;74970;47.924;13.802;2023-12-28T15:23:56;4.6;;4.7;4.3;;;;;;
84740;SPS30;74970;47.924;13.802;2023-12-28T15:28:56;5.1;;5.2;4.8;;;;;;
84740;SPS30;74970;47.924;13.802;2023-12-28T15:33:56;5.8;;5.9;5.4;;;;;;
84740;SPS30;74970;47.924;13.802;2023-12-28T15:38:56;4.8;;5.0;4.5;;;;;;
84740;SPS30;74970;47.924;13.802;2023-12-28T15:43:56;6.9;;7.0;6.4;;;;;;
84740;SPS30;74970;47.924;13.802;2023-12-28T15:48:56;7.1;;7.1;6.8;;;;;;
84740;SPS30;74970;47.924;13.802;2023-12-28T15:53:56;7.4;;7.6;7.0;;;;;;
84740;SPS30;74970;47.924;13.802;2023-12-28T15:58:56;5.4;;5.4;5.1;;;;;;
84740;SPS30;74970;47.924;13.802;2023-12-28T16:03:56;6.4;;6.6;6.0;;;;;;
84740;SPS30;74970;47.924;13.802;2023-12-28T16:08:56;6.6;;6.8;6.2;;;;;;
84740;SPS30;74970;47.924;13.802;2023-12-28T16:13:56;6.8;;6.9;6.4;;;;;;
84740;SPS30;74970;47.924;13.802;2023-12-28T16:18:56;6.5;;6.6;6.2;;;;;;
84740;SPS30;74970;47.924;13.802;2023-12-28T16:23:56;8.3;;8.6;7.8;;;;;;
84740;SPS30;74970;47.924;13.802;2023-12-28T16:28:56;5.7;;5.8;5.3;;;;;;
84740;SPS30;74970;47.924;13.802;2023-12-28T16:33:56;5.8;;6.0;5.5;;;;;;
84740;SPS30;74970;47.924;13.802;2023-12-28T16:38:56;5.5;;5.6;5.1;;;;;;
84740;SPS30;74970;47.924;13.802;2023-12-28T16:43:56;5.6;;5.8;5.3;;;;;;
84740;SPS30;74970;47.924;13.802;2023-12-28T16:48:56;5.9;;6.0;5.5;;;;;;
84740;SPS30;74970;47.924;13.802;2023-12-28T16:53:56;6.5;;6.7;6.1;;;;;;
84740;SPS30;74970;47.924;13.802;2023-12-28T16:58:56;6.5;;6.7;6.1;;;;;;
84740;SPS30;74970;47.924;13.802;2023-12-28T17:03:56;7.1;;7.2;6.6;;;;;;
84740;SPS30;74970;47.924;13.802;2023-12-28T17:08:56;6.6;;6.8;6.2;;;;;;
84740;SPS30;74970;47.924;13.802;2023-12-28T17:13:56;7.1;;7.3;6.5;;;;;;
84740;SPS30;74970;47.924;13.802;2023-12-28T17:18:57;7.0;;7.3;6.5;;;;;;
84740;SPS30;74970;47.924;13.802;2023-12-28T17:23:56;6.1;;6.2;5.6;;;;;;
84740;SPS30;74970;47.924;13.802;2023-12-28T17:29:03;5.5;;5.7;5.2;;;;;;
84740;SPS30;74970;47.924;13.802;2023-12-28T17:33:56;6.7;;6.8;6.2;;;;;;
84740;SPS30;74970;47.924;13.802;2023-12-28T17:38:56;6.8;;7.0;6.4;;;;;;
84740;SPS30;74970;47.924;13.802;2023-12-28T17:43:57;7.3;;7.4;6.8;;;;;;
84740;SPS30;74970;47.924;13.802;2023-12-28T17:48:58;7.2;;7.2;6.8;;;;;;
84740;SPS30;74970;47.924;13.802;2023-12-28T17:53:57;7.3;;7.5;6.8;;;;;;
84740;SPS30;74970;47.924;13.802;2023-12-28T17:58:56;6.7;;6.8;6.3;;;;;;
84740;SPS30;74970;47.924;13.802;2023-12-28T18:03:56;5.3;;5.4;4.9;;;;;;
84740;SPS30;74970;47.924;13.802;2023-12-28T18:08:56;5.8;;5.9;5.4;;;;;;
84740;SPS30;74970;47.924;13.802;2023-12-28T18:13:56;6.1;;6.2;5.7;;;;;;
84740;SPS30;74970;47.924;13.802;2023-12-28T18:18:56;6.0;;6.2;5.6;;;;;;
84740;SPS30;74970;47.924;13.802;2023-12-28T18:23:56;5.8;;5.9;5.5;;;;;;
84740;SPS30;74970;47.924;13.802;2023-12-28T18:28:56;6.6;;6.7;6.2;;;;;;
84740;SPS30;74970;47.924;13.802;2023-12-28T18:33:56;6.6;;6.7;6.2;;;;;;
84740;SPS30;74970;47.924;13.802;2023-12-28T18:38:55;6.1;;6.3;5.7;;;;;;
84740;SPS30;74970;47.924;13.802;2023-12-28T18:43:56;5.7;;5.8;5.3;;;;;;
84740;SPS30;74970;47.924;13.802;2023-12-28T18:48:56;7.9;;8.0;7.4;;;;;;
84740;SPS30;74970;47.924;13.802;2023-12-28T18:53:55;5.5;;5.7;5.2;;;;;;
84740;SPS30;74970;47.924;13.802;2023-12-28T18:58:56;5.7;;5.8;5.3;;;;;;
84740;SPS30;74970;47.924;13.802;2023-12-28T19:03:56;5.1;;5.3;4.8;;;;;;
84740;SPS30;74970;47.924;13.802;2023-12-28T19:08:56;5.4;;5.6;5.1;;;;;;
84740;SPS30;74970;47.924;13.802;2023-12-28T19:13:55;3.7;;3.8;3.5;;;;;;
84740;SPS30;74970;47.924;13.802;2023-12-28T19:18:56;3.8;;3.9;3.6;;;;;;
84740;SPS30;74970;47.924;13.802;2023-12-28T19:23:56;4.5;;4.6;4.2;;;;;;
84740;SPS30;74970;47.924;13.802;2023-12-28T19:28:56;4.2;;4.3;3.9;;;;;;
84740;SPS30;74970;47.924;13.802;2023-12-28T19:33:56;5.8;;6.0;5.5;;;;;;
84740;SPS30;74970;47.924;13.802;2023-12-28T19:38:56;5.7;;5.8;5.3;;;;;;
84740;SPS30;74970;47.924;13.802;2023-12-28T19:43:56;4.8;;4.9;4.5;;;;;;
84740;SPS30;74970;47.924;13.802;2023-12-28T19:48:56;5.2;;5.3;4.9;;;;;;
84740;SPS30;74970;47.924;13.802;2023-12-28T19:53:56;5.3;;5.4;4.9;;;;;;
84740;SPS30;74970;47.924;13.802;2023-12-28T19:58:56;4.7;;4.8;4.4;;;;;;
84740;SPS30;74970;47.924;13.802;2023-12-28T20:03:56;6.7;;6.9;6.2;;;;;;
84740;SPS30;74970;47.924;13.802;2023-12-28T20:08:56;4.5;;4.6;4.3;;;;;;
84740;SPS30;74970;47.924;13.802;2023-12-28T20:13:56;5.5;;5.7;5.1;;;;;;
84740;SPS30;74970;47.924;13.802;2023-12-28T20:18:56;5.7;;5.9;5.3;;;;;;
84740;SPS30;74970;47.924;13.802;2023-12-28T20:23:56;6.0;;6.1;5.6;;;;;;
84740;SPS30;74970;47.924;13.802;2023-12-28T20:28:56;4.7;;4.9;4.4;;;;;;
84740;SPS30;74970;47.924;13.802;2023-12-28T20:33:56;3.9;;4.1;3.7;;;;;;
84740;SPS30;74970;47.924;13.802;2023-12-28T20:38:56;3.9;;4.0;3.6;;;;;;
84740;SPS30;74970;47.924;13.802;2023-12-28T20:43:56;4.8;;4.9;4.5;;;;;;
84740;SPS30;74970;47.924;13.802;2023-12-28T20:48:56;3.7;;3.7;3.4;;;;;;
84740;SPS30;74970;47.924;13.802;2023-12-28T20:53:56;4.2;;4.3;3.9;;;;;;
84740;SPS30;74970;47.924;13.802;2023-12-28T20:58:56;3.9;;4.0;3.7;;;;;;
84740;SPS30;74970;47.924;13.802;2023-12-28T21:03:56;3.9;;4.0;3.7;;;;;;
84740;SPS30;74970;47.924;13.802;2023-12-28T21:08:56;4.2;;4.3;3.9;;;;;;
84740;SPS30;74970;47.924;13.802;2023-12-28T21:13:56;4.0;;4.1;3.7;;;;;;
84740;SPS30;74970;47.924;13.802;2023-12-28T21:18:56;3.7;;3.8;3.5;;;;;;
84740;SPS30;74970;47.924;13.802;2023-12-28T21:23:56;4.0;;4.1;3.7;;;;;;
84740;SPS30;74970;47.924;13.802;2023-12-28T21:28:56;4.2;;4.3;3.9;;;;;;
84740;SPS30;74970;47.924;13.802;2023-12-28T21:33:56;4.1;;4.2;3.8;;;;;;
84740;SPS30;74970;47.924;13.802;2023-12-28T21:38:56;3.9;;4.0;3.7;;;;;;
84740;SPS30;74970;47.924;13.802;2023-12-28T21:43:56;4.0;;4.1;3.7;;;;;;
84740;SPS30;74970;47.924;13.802;2023-12-28T21:48:56;4.3;;4.4;4.0;;;;;;
84740;SPS30;74970;47.924;13.802;2023-12-28T21:53:56;3.5;;3.5;3.3;;;;;;
84740;SPS30;74970;47.924;13.802;2023-12-28T21:58:56;3.0;;3.0;2.8;;;;;;
84740;SPS30;74970;47.924;13.802;2023-12-28T22:03:56;2.9;;3.0;2.7;;;;;;
84740;SPS30;74970;47.924;13.802;2023-12-28T22:08:56;3.2;;3.3;3.0;;;;;;
84740;SPS30;74970;47.924;13.802;2023-12-28T22:13:56;3.1;;3.2;2.9;;;;;;
84740;SPS30;74970;47.924;13.802;2023-12-28T22:18:56;3.6;;3.7;3.4;;;;;;
84740;SPS30;74970;47.924;13.802;2023-12-28T22:23:56;3.5;;3.6;3.3;;;;;;
84740;SPS30;74970;47.924;13.802;2023-12-28T22:28:56;4.0;;4.1;3.7;;;;;;
84740;SPS30;74970;47.924;13.802;2023-12-28T22:33:56;3.2;;3.3;3.0;;;;;;
84740;SPS30;74970;47.924;13.802;2023-12-28T22:38:56;2.8;;2.9;2.7;;;;;;
84740;SPS30;74970;47.924;13.802;2023-12-28T22:43:56;2.7;;2.7;2.5;;;;;;
84740;SPS30;74970;47.924;13.802;2023-12-28T22:48:56;2.4;;2.4;2.2;;;;;;
84740;SPS30;74970;47.924;13.802;2023-12-28T22:53:56;3.1;;3.2;2.9;;;;;;
84740;SPS30;74970;47.924;13.802;2023-12-28T22:58:56;3.1;;3.2;2.9;;;;;;
84740;SPS30;74970;47.924;13.802;2023-12-28T23:03:56;2.9;;2.9;2.7;;;;;;
84740;SPS30;74970;47.924;13.802;2023-12-28T23:08:56;3.3;;3.3;3.1;;;;;;
84740;SPS30;74970;47.924;13.802;2023-12-28T23:13:56;3.4;;3.5;3.2;;;;;;
84740;SPS30;74970;47.924;13.802;2023-12-28T23:18:56;3.8;;3.9;3.6;;;;;;
84740;SPS30;74970;47.924;13.802;2023-12-28T23:23:56;3.4;;3.5;3.2;;;;;;
84740;SPS30;74970;47.924;13.802;2023-12-28T23:28:56;3.1;;3.2;2.9;;;;;;
84740;SPS30;74970;47.924;13.802;2023-12-28T23:33:56;2.6;;2.6;2.4;;;;;;
84740;SPS30;74970;47.924;13.802;2023-12-28T23:38:56;3.3;;3.3;3.1;;;;;;
84740;SPS30;74970;47.924;13.802;2023-12-28T23:43:56;2.8;;2.9;2.6;;;;;;
84740;SPS30;74970;47.924;13.802;2023-12-28T23:48:56;3.2;;3.2;3.0;;;;;;
84740;SPS30;74970;47.924;13.802;2023-12-28T23:53:56;3.4;;3.4;3.2;;;;;;
84740;SPS30;74970;47.924;13.802;2023-12-28T23:58:56;2.9;;2.9;2.7;;;;;;
